Time;durP1;ratioP1;P1;durP2;ratioP2;P2;SDS_P1;SDS_P2;PMS_P1;PMS_P2;Temp;Humidity;BMP_temperature;BMP_pressure;BME280_temperature;BME280_humidity;BME280_pressure;Samples;Min_cycle;Max_cycle;Signal;HPM_P1;HPM_P2
2021/07/10 00:02:00;;;;;;;11.20;8.38;;;;;;;14.00;100.00;99211.41;5034306;28;20025;-71
2021/07/10 00:04:27;;;;;;;16.05;8.93;;;;;;;14.06;100.00;99224.13;5033867;28;20075;-70
2021/07/10 00:06:53;;;;;;;12.93;8.40;;;;;;;13.93;100.00;99202.41;5029082;28;20025;-70
2021/07/10 00:09:18;;;;;;;15.52;9.95;;;;;;;13.97;100.00;99214.56;5012081;28;20026;-70
2021/07/10 00:11:44;;;;;;;13.80;8.98;;;;;;;13.94;100.00;99204.94;5031750;28;20045;-70
2021/07/10 00:14:09;;;;;;;12.18;8.80;;;;;;;14.00;100.00;99219.56;5012090;28;20030;-71
2021/07/10 00:16:34;;;;;;;16.35;9.13;;;;;;;13.93;100.00;99211.41;5015605;28;20036;-71
2021/07/10 00:19:00;;;;;;;16.13;9.02;;;;;;;13.92;100.00;99201.59;5023491;28;20029;-71
2021/07/10 00:21:25;;;;;;;18.50;8.73;;;;;;;13.85;100.00;99203.50;5027037;28;20037;-71
2021/07/10 00:23:50;;;;;;;19.05;9.43;;;;;;;13.74;100.00;99196.00;5020827;28;20042;-70
2021/07/10 00:26:16;;;;;;;15.00;8.18;;;;;;;13.59;100.00;99193.53;5016879;28;20034;-71
2021/07/10 00:28:41;;;;;;;13.25;8.80;;;;;;;13.46;100.00;99182.69;5016505;28;20021;-71
2021/07/10 00:31:06;;;;;;;13.13;8.60;;;;;;;13.33;100.00;99192.53;5033193;28;20029;-71
2021/07/10 00:33:32;;;;;;;21.13;9.65;;;;;;;13.48;100.00;99199.63;5030247;28;20108;-71
2021/07/10 00:35:57;;;;;;;15.48;8.40;;;;;;;13.25;100.00;99171.00;5024755;28;20040;-70
2021/07/10 00:38:22;;;;;;;13.40;9.02;;;;;;;13.42;100.00;99197.78;5031727;28;20060;-71
2021/07/10 00:40:48;;;;;;;13.30;7.85;;;;;;;13.25;100.00;99178.31;5016251;28;20025;-71
2021/07/10 00:43:13;;;;;;;15.25;8.95;;;;;;;13.29;100.00;99191.31;5025923;28;20034;-71
2021/07/10 00:45:39;;;;;;;13.85;8.38;;;;;;;13.27;100.00;99192.56;5024670;28;20029;-71
2021/07/10 00:48:05;;;;;;;9.95;7.45;;;;;;;12.99;100.00;99168.31;5033098;28;20037;-71
2021/07/10 00:50:30;;;;;;;7.82;6.70;;;;;;;13.11;100.00;99191.09;5031640;28;20487;-70
2021/07/10 00:52:55;;;;;;;7.88;7.00;;;;;;;13.09;100.00;99190.47;5030608;28;20025;-70
2021/07/10 00:55:22;;;;;;;13.38;8.98;;;;;;;12.93;100.00;99168.09;5033348;28;20040;-70
2021/07/10 00:57:50;;;;;;;12.82;8.65;;;;;;;12.89;100.00;99175.03;5033624;28;20434;-72
2021/07/10 01:00:18;;;;;;;19.77;8.93;;;;;;;13.03;100.00;99191.31;5031977;28;20076;-70
2021/07/10 01:02:46;;;;;;;13.05;8.13;;;;;;;12.88;100.00;99177.94;5031899;28;20026;-70
2021/07/10 01:05:14;;;;;;;11.38;8.00;;;;;;;12.92;100.00;99179.19;5033198;28;20025;-70
2021/07/10 01:07:40;;;;;;;19.75;9.95;;;;;;;12.93;100.00;99175.41;5026731;28;20025;-71
2021/07/10 01:10:10;;;;;;;15.18;9.70;;;;;;;13.06;100.00;99169.16;5021204;28;20026;-71
2021/07/10 01:12:38;;;;;;;20.88;9.82;;;;;;;13.10;100.00;99148.69;5018182;28;20037;-71
2021/07/10 01:15:06;;;;;;;15.40;10.90;;;;;;;13.12;100.00;99155.53;5019117;28;20387;-71
2021/07/10 01:17:31;;;;;;;18.80;10.20;;;;;;;12.97;100.00;99138.66;5021827;28;20022;-71
2021/07/10 01:20:10;;;;;;;15.45;10.00;;;;;;;12.92;100.00;99155.59;5009410;28;20044;-71
2021/07/10 01:22:40;;;;;;;15.18;8.85;;;;;;;12.84;100.00;99160.41;5027959;28;20372;-71
2021/07/10 01:25:08;;;;;;;17.95;8.90;;;;;;;12.74;100.00;99147.25;5026893;28;20036;-71
2021/07/10 01:27:33;;;;;;;16.40;9.95;;;;;;;12.69;100.00;99138.88;5005980;28;20033;-71
2021/07/10 01:30:03;;;;;;;19.02;9.85;;;;;;;12.77;100.00;99154.13;5032892;28;20032;-69
2021/07/10 01:32:29;;;;;;;14.05;8.93;;;;;;;12.67;100.00;99122.78;5027610;28;20614;-70
2021/07/10 01:34:55;;;;;;;16.48;9.65;;;;;;;12.58;100.00;99140.34;5026446;28;20156;-71
2021/07/10 01:37:20;;;;;;;13.02;8.75;;;;;;;12.50;100.00;99149.53;5032336;28;20048;-71
2021/07/10 01:39:45;;;;;;;17.92;9.98;;;;;;;12.43;100.00;99110.69;5032293;28;20021;-70
2021/07/10 01:42:11;;;;;;;14.65;9.18;;;;;;;12.51;100.00;99144.94;5032592;28;20107;-70
2021/07/10 01:44:38;;;;;;;14.18;8.32;;;;;;;12.34;100.00;99155.34;5032024;28;20033;-71
2021/07/10 01:47:04;;;;;;;12.68;6.90;;;;;;;12.29;100.00;99141.56;5010547;28;20034;-72
2021/07/10 01:49:29;;;;;;;13.27;8.52;;;;;;;12.26;100.00;99145.53;5032525;28;20515;-70
2021/07/10 01:51:55;;;;;;;16.92;9.55;;;;;;;12.19;100.00;99131.09;5031553;28;20037;-70
2021/07/10 01:54:21;;;;;;;21.30;10.00;;;;;;;12.31;100.00;99111.50;5014218;28;20037;-70
2021/07/10 01:56:48;;;;;;;14.63;9.82;;;;;;;12.41;100.00;99137.19;5014381;28;20021;-70
2021/07/10 01:59:13;;;;;;;18.50;11.05;;;;;;;12.34;100.00;99139.06;5029726;28;20029;-71
2021/07/10 02:01:38;;;;;;;15.85;11.30;;;;;;;12.36;100.00;99136.97;5013161;28;20068;-70
2021/07/10 02:04:07;;;;;;;15.98;9.50;;;;;;;12.30;100.00;99134.25;5031824;28;20360;-70
2021/07/10 02:06:33;;;;;;;13.55;9.20;;;;;;;12.37;100.00;99138.66;5031810;28;20099;-71
2021/07/10 02:08:59;;;;;;;13.10;9.23;;;;;;;12.39;100.00;99146.56;5032110;28;20109;-70
2021/07/10 02:11:24;;;;;;;15.73;8.90;;;;;;;12.36;100.00;99141.56;5031299;28;20108;-71
2021/07/10 02:13:49;;;;;;;16.35;10.10;;;;;;;12.28;100.00;99137.16;5013621;28;20021;-71
2021/07/10 02:16:15;;;;;;;14.35;9.75;;;;;;;12.04;100.00;99101.44;5031591;28;20026;-71
2021/07/10 02:18:41;;;;;;;16.15;9.25;;;;;;;12.23;100.00;99131.53;5031781;28;20029;-71
2021/07/10 02:21:06;;;;;;;11.95;8.10;;;;;;;11.97;100.00;99102.47;5030361;28;20033;-70
2021/07/10 02:23:32;;;;;;;10.48;6.82;;;;;;;12.05;100.00;99121.25;5032746;28;20145;-70
2021/07/10 02:25:57;;;;;;;12.07;8.00;;;;;;;12.02;100.00;99125.22;5031896;28;20025;-71
2021/07/10 02:28:23;;;;;;;13.65;8.55;;;;;;;11.99;100.00;99100.38;5031023;28;20040;-70
2021/07/10 02:30:48;;;;;;;14.80;8.10;;;;;;;12.03;100.00;99116.06;5031225;28;20392;-70
2021/07/10 02:33:15;;;;;;;10.88;7.40;;;;;;;11.92;100.00;99113.09;5029961;28;20172;-70
2021/07/10 02:35:41;;;;;;;16.70;7.93;;;;;;;12.00;100.00;99113.75;5010189;28;20021;-70
2021/07/10 02:38:07;;;;;;;10.82;7.40;;;;;;;11.80;100.00;99091.16;5012078;28;20029;-71
2021/07/10 02:40:34;;;;;;;10.93;8.50;;;;;;;11.96;100.00;99109.78;5025690;28;20029;-71
2021/07/10 02:43:00;;;;;;;14.05;7.93;;;;;;;11.91;100.00;99106.00;5020493;28;20044;-71
2021/07/10 02:45:25;;;;;;;18.27;8.90;;;;;;;11.80;100.00;99101.97;5012381;28;20022;-71
2021/07/10 02:47:50;;;;;;;17.42;8.75;;;;;;;11.72;100.00;99089.44;5013820;28;20030;-71
2021/07/10 02:50:20;;;;;;;22.70;9.85;;;;;;;11.78;100.00;99107.59;5016972;28;20435;-71
2021/07/10 02:52:46;;;;;;;19.63;10.35;;;;;;;11.77;100.00;99088.84;5008625;28;20809;-70
2021/07/10 02:55:12;;;;;;;15.00;9.68;;;;;;;11.90;100.00;99105.19;5017931;28;20025;-69
2021/07/10 02:57:38;;;;;;;16.05;8.00;;;;;;;11.82;100.00;99105.34;5035764;28;20053;-69
2021/07/10 03:00:11;;;;;;;8.23;7.07;;;;;;;11.73;100.00;99099.25;5036020;28;20022;-69
2021/07/10 03:02:36;;;;;;;11.20;7.70;;;;;;;11.54;100.00;99094.59;5034158;28;20124;-70
2021/07/10 03:05:03;;;;;;;8.50;7.25;;;;;;;11.57;100.00;99100.44;5035013;28;20527;-69
2021/07/10 03:07:28;;;;;;;7.88;6.97;;;;;;;11.49;100.00;99078.94;5034220;28;20035;-69
2021/07/10 03:09:53;;;;;;;8.63;7.07;;;;;;;11.45;100.00;99088.53;5034793;28;20233;-70
2021/07/10 03:12:18;;;;;;;9.52;7.00;;;;;;;11.47;100.00;99101.84;5017286;28;20021;-70
2021/07/10 03:14:44;;;;;;;6.82;6.13;;;;;;;11.43;100.00;99093.31;5034409;28;20104;-70
2021/07/10 03:17:09;;;;;;;7.18;6.47;;;;;;;11.36;100.00;99092.44;5017522;28;20072;-69
2021/07/10 03:19:34;;;;;;;7.05;6.35;;;;;;;11.35;100.00;99094.31;5035031;28;20382;-69
2021/07/10 03:22:00;;;;;;;9.90;7.63;;;;;;;11.45;100.00;99096.66;5008021;28;20026;-71
2021/07/10 03:24:25;;;;;;;9.85;8.55;;;;;;;11.44;100.00;99086.00;5033680;28;20029;-70
2021/07/10 03:26:50;;;;;;;18.52;8.48;;;;;;;11.38;100.00;99060.56;5016877;28;20061;-70
2021/07/10 03:29:16;;;;;;;28.17;8.52;;;;;;;11.38;100.00;99065.97;5016873;28;20387;-69
2021/07/10 03:31:41;;;;;;;10.20;7.40;;;;;;;11.40;100.00;99072.03;5034376;28;20132;-70
2021/07/10 03:34:06;;;;;;;12.30;8.48;;;;;;;11.63;100.00;99079.81;4998746;28;20040;-71
2021/07/10 03:36:32;;;;;;;10.30;8.10;;;;;;;11.54;100.00;99072.91;5028739;28;20025;-70
2021/07/10 03:38:57;;;;;;;10.65;7.63;;;;;;;11.56;100.00;99060.00;5033623;28;20028;-70
2021/07/10 03:41:22;;;;;;;9.35;7.28;;;;;;;11.51;100.00;99052.47;5015255;28;20079;-70
2021/07/10 03:43:48;;;;;;;6.80;6.07;;;;;;;11.68;100.00;99073.78;5026494;28;20037;-70
2021/07/10 03:46:14;;;;;;;8.20;6.90;;;;;;;11.71;100.00;99078.78;5016371;28;20030;-70
2021/07/10 03:48:39;;;;;;;7.72;5.88;;;;;;;11.75;100.00;99078.19;5025290;28;20044;-69
2021/07/10 03:51:05;;;;;;;5.80;5.20;;;;;;;11.75;100.00;99077.38;5034234;28;20040;-70
2021/07/10 03:53:31;;;;;;;6.05;5.45;;;;;;;11.63;100.00;99059.00;5033902;28;20518;-70
2021/07/10 03:55:57;;;;;;;5.88;5.28;;;;;;;11.73;100.00;99076.72;5033805;28;20065;-70
2021/07/10 03:58:22;;;;;;;6.40;5.57;;;;;;;11.76;100.00;99051.91;5015914;28;20104;-70
2021/07/10 04:00:47;;;;;;;6.38;5.63;;;;;;;11.75;100.00;99048.38;5016106;28;20564;-70
2021/07/10 04:03:12;;;;;;;6.05;5.10;;;;;;;11.83;100.00;99077.16;5015276;28;20029;-74
2021/07/10 04:05:38;;;;;;;6.30;5.22;;;;;;;11.72;100.00;99065.06;5028405;28;20021;-75
2021/07/10 04:08:04;;;;;;;6.95;5.28;;;;;;;11.86;100.00;99082.22;5034214;28;20146;-77
2021/07/10 04:10:29;;;;;;;8.50;5.60;;;;;;;11.73;100.00;99057.75;5009642;28;20033;-73
2021/07/10 04:12:55;;;;;;;7.45;5.75;;;;;;;11.82;100.00;99067.38;5010850;28;20033;-74
2021/07/10 04:15:21;;;;;;;11.05;5.75;;;;;;;11.94;100.00;99083.91;5016619;28;20029;-73
2021/07/10 04:17:47;;;;;;;8.50;5.85;;;;;;;11.88;100.00;99074.72;5034286;28;20025;-73
2021/07/10 04:20:14;;;;;;;8.02;5.10;;;;;;;12.01;100.00;99084.75;5016325;28;20026;-72
2021/07/10 04:22:40;;;;;;;8.63;6.25;;;;;;;12.03;100.00;99061.00;5033362;28;20017;-73
2021/07/10 04:25:08;;;;;;;6.88;6.18;;;;;;;12.19;100.00;99078.75;5033570;28;20028;-69
2021/07/10 04:27:34;;;;;;;7.40;5.85;;;;;;;12.10;100.00;99052.84;5032650;28;20068;-75
2021/07/10 04:30:00;;;;;;;8.40;6.22;;;;;;;12.30;100.00;99083.53;5000114;28;20044;-74
2021/07/10 04:32:26;;;;;;;9.38;6.55;;;;;;;12.33;100.00;99077.69;5016817;28;20434;-74
2021/07/10 04:34:52;;;;;;;10.60;7.40;;;;;;;12.36;100.00;99055.56;5051095;28;20029;-75
2021/07/10 04:37:17;;;;;;;10.75;7.55;;;;;;;12.65;100.00;99080.59;5028726;28;20039;-74
2021/07/10 04:39:43;;;;;;;11.45;8.50;;;;;;;12.57;100.00;99050.97;5033963;28;20510;-74
2021/07/10 04:42:08;;;;;;;11.23;7.50;;;;;;;12.74;100.00;99065.78;5032714;28;20095;-73
2021/07/10 04:44:34;;;;;;;10.13;6.63;;;;;;;12.84;100.00;99057.22;5028685;28;20289;-70
2021/07/10 04:47:01;;;;;;;8.50;6.30;;;;;;;13.12;100.00;99075.94;5021440;28;20033;-72
2021/07/10 04:49:27;;;;;;;10.70;6.60;;;;;;;13.21;100.00;99080.09;5031111;28;20025;-72
2021/07/10 04:51:52;;;;;;;13.52;6.93;;;;;;;13.13;99.93;99059.44;5033417;28;20037;-71
2021/07/10 04:54:17;;;;;;;11.82;7.72;;;;;;;13.28;100.00;99066.50;5032160;28;20043;-70
2021/07/10 04:56:43;;;;;;;10.13;7.20;;;;;;;13.28;99.52;99058.38;5032936;28;20371;-73
2021/07/10 04:59:08;;;;;;;13.70;8.10;;;;;;;13.36;98.65;99061.69;5015562;28;20037;-73
2021/07/10 05:01:34;;;;;;;11.07;6.70;;;;;;;13.54;96.46;99060.97;5033342;28;20118;-73
2021/07/10 05:03:59;;;;;;;11.65;6.85;;;;;;;13.70;96.58;99075.97;5032962;28;20025;-75
2021/07/10 05:06:25;;;;;;;10.07;7.75;;;;;;;13.63;96.46;99050.69;5030589;28;20030;-73
2021/07/10 05:08:50;;;;;;;8.52;6.68;;;;;;;13.79;94.36;99061.06;5014593;28;20104;-74
2021/07/10 05:11:16;;;;;;;12.15;7.32;;;;;;;13.90;94.05;99064.13;5014924;28;20021;-74
2021/07/10 05:13:41;;;;;;;10.15;7.18;;;;;;;13.98;94.38;99053.81;5013581;28;20048;-73
2021/07/10 05:16:07;;;;;;;14.27;7.05;;;;;;;14.08;93.67;99053.34;5031542;28;20029;-74
2021/07/10 05:18:32;;;;;;;9.70;6.97;;;;;;;14.44;93.75;99073.59;5032251;28;20136;-69
2021/07/10 05:20:58;;;;;;;11.82;6.22;;;;;;;14.59;92.11;99087.75;5032912;28;20060;-70
2021/07/10 05:23:23;;;;;;;11.73;6.65;;;;;;;14.54;91.64;99063.09;5031821;28;20032;-70
2021/07/10 05:25:48;;;;;;;12.07;6.63;;;;;;;14.75;91.73;99069.16;5032360;28;20034;-76
2021/07/10 05:28:14;;;;;;;16.63;6.07;;;;;;;15.05;90.49;99074.75;5014895;28;20036;-72
2021/07/10 05:30:39;;;;;;;12.75;6.00;;;;;;;15.06;89.48;99054.59;5031994;28;20022;-72
2021/07/10 05:33:04;;;;;;;13.23;6.20;;;;;;;15.25;89.19;99064.47;5032178;28;20022;-72
2021/07/10 05:35:30;;;;;;;10.90;5.50;;;;;;;15.44;88.28;99070.72;5032778;28;20541;-73
2021/07/10 05:37:55;;;;;;;9.98;5.60;;;;;;;15.47;87.44;99081.19;5032225;28;20037;-71
2021/07/10 05:40:21;;;;;;;8.68;5.75;;;;;;;15.56;88.23;99071.63;5032510;28;20071;-71
2021/07/10 05:42:50;;;;;;;9.98;5.72;;;;;;;15.75;86.65;99079.81;5031263;28;20025;-71
2021/07/10 05:45:19;;;;;;;9.55;5.57;;;;;;;15.99;86.67;99065.19;5031877;28;20071;-71
2021/07/10 05:47:46;;;;;;;9.07;5.93;;;;;;;16.06;85.71;99067.00;5031845;28;20136;-71
2021/07/10 05:50:12;;;;;;;11.52;5.45;;;;;;;16.31;85.30;99061.38;5032299;28;20027;-70
2021/07/10 05:52:38;;;;;;;8.98;5.38;;;;;;;16.31;82.54;99037.63;5026432;28;20104;-71
2021/07/10 05:55:05;;;;;;;11.93;6.95;;;;;;;16.97;82.43;99056.69;5013252;28;20025;-70
2021/07/10 05:57:31;;;;;;;9.70;4.93;;;;;;;17.04;81.47;99039.09;5004356;28;20056;-70
2021/07/10 05:59:57;;;;;;;10.95;5.22;;;;;;;17.09;79.76;99021.97;5018544;28;20390;-72
2021/07/10 06:02:22;;;;;;;7.55;4.93;;;;;;;17.47;79.27;99046.00;5025348;28;20108;-71
2021/07/10 06:04:47;;;;;;;8.15;5.55;;;;;;;17.39;79.56;99035.44;5022850;28;20028;-71
2021/07/10 06:07:12;;;;;;;9.18;5.20;;;;;;;17.84;77.53;99047.59;5008316;28;20047;-70
2021/07/10 06:09:39;;;;;;;6.97;5.25;;;;;;;17.78;77.47;99026.66;5008704;28;20025;-71
2021/07/10 06:12:04;;;;;;;6.35;5.25;;;;;;;18.25;76.73;99048.34;5025003;28;20033;-71
2021/07/10 06:14:30;;;;;;;7.32;4.97;;;;;;;18.49;74.21;99049.84;5021717;28;20379;-71
2021/07/10 06:16:56;;;;;;;7.53;5.43;;;;;;;18.52;75.46;99038.41;5026918;28;20030;-71
2021/07/10 06:19:22;;;;;;;6.60;5.10;;;;;;;18.44;75.36;99040.69;5026254;28;20049;-72
2021/07/10 06:21:47;;;;;;;9.52;5.03;;;;;;;18.82;75.11;99048.19;5021980;28;20550;-71
2021/07/10 06:24:12;;;;;;;5.93;4.90;;;;;;;19.02;74.25;99042.16;5009017;28;20039;-71
2021/07/10 06:26:38;;;;;;;9.35;5.57;;;;;;;19.15;73.75;99054.69;5010620;28;20029;-71
2021/07/10 06:29:04;;;;;;;7.70;5.40;;;;;;;18.69;73.94;99034.81;5024511;28;20035;-74
2021/07/10 06:31:29;;;;;;;16.50;6.93;;;;;;;18.70;73.19;99028.25;5028416;28;20049;-75
2021/07/10 06:33:54;;;;;;;6.90;5.40;;;;;;;18.87;73.06;99039.22;5006680;28;20033;-71
2021/07/10 06:36:20;;;;;;;7.43;5.68;;;;;;;19.19;71.78;99050.38;5014332;28;20030;-76
2021/07/10 06:38:45;;;;;;;8.82;4.88;;;;;;;19.46;70.33;99053.19;5031857;28;20018;-76
2021/07/10 06:41:11;;;;;;;6.57;4.90;;;;;;;19.49;69.89;99037.06;5031584;28;20029;-75
2021/07/10 06:43:36;;;;;;;6.00;4.70;;;;;;;19.47;67.87;99039.22;5025663;28;20025;-75
2021/07/10 06:46:02;;;;;;;8.38;4.78;;;;;;;19.67;68.92;99010.38;5023173;28;20021;-71
2021/07/10 06:48:28;;;;;;;8.95;4.88;;;;;;;19.90;68.41;99032.03;5027176;28;20108;-71
2021/07/10 06:50:53;;;;;;;6.40;4.93;;;;;;;20.15;67.20;99033.41;5009222;28;20029;-75
2021/07/10 06:53:22;;;;;;;6.28;4.50;;;;;;;20.39;67.04;99035.81;5013392;28;20029;-73
2021/07/10 06:55:50;;;;;;;8.02;4.88;;;;;;;21.28;64.30;99048.81;5028850;28;20501;-73
2021/07/10 06:58:16;;;;;;;7.07;4.65;;;;;;;21.71;63.72;99041.28;5012703;28;20472;-69
2021/07/10 07:00:41;;;;;;;9.05;4.78;;;;;;;22.40;60.86;99028.22;5031731;28;20043;-72
2021/07/10 07:03:07;;;;;;;8.70;4.70;;;;;;;23.39;57.70;99034.97;5031000;28;20146;-72
2021/07/10 07:05:32;;;;;;;6.88;4.90;;;;;;;24.57;54.44;99037.06;5013875;28;20044;-73
2021/07/10 07:07:57;;;;;;;6.47;4.10;;;;;;;25.40;51.49;98999.13;5030402;28;20029;-73
2021/07/10 07:10:23;;;;;;;5.03;4.05;;;;;;;26.22;49.82;99012.69;5036760;28;20063;-76
2021/07/10 07:12:48;;;;;;;7.00;4.25;;;;;;;28.08;44.73;99019.97;5012246;28;20026;-71
2021/07/10 07:15:14;;;;;;;6.05;3.65;;;;;;;28.23;44.87;99009.66;5031623;28;20117;-71
2021/07/10 07:17:40;;;;;;;7.03;4.30;;;;;;;29.27;42.75;98983.25;5031304;28;20040;-75
2021/07/10 07:20:10;;;;;;;6.45;4.65;;;;;;;29.34;42.47;98996.72;5031877;28;20033;-76
2021/07/10 07:22:35;;;;;;;8.70;3.50;;;;;;;29.28;41.81;99006.38;5012202;28;20045;-71
2021/07/10 07:25:02;;;;;;;5.95;3.80;;;;;;;29.33;41.18;99000.66;5022087;28;20021;-71
2021/07/10 07:27:28;;;;;;;5.18;3.53;;;;;;;28.50;42.77;98981.69;5012990;28;20057;-74
2021/07/10 07:29:53;;;;;;;4.70;3.25;;;;;;;28.79;42.20;98977.59;5007411;28;20583;-75
2021/07/10 07:32:18;;;;;;;5.32;3.53;;;;;;;28.98;42.91;98992.13;5031873;28;20036;-74
2021/07/10 07:34:47;;;;;;;5.38;3.90;;;;;;;30.94;39.15;98994.19;5008821;28;20033;-73
2021/07/10 07:37:13;;;;;;;;;;;;;;;30.32;39.31;98992.63;5015486;28;20452;-72
2021/07/10 07:39:38;;;;;;;4.53;3.35;;;;;;;30.32;39.36;98967.50;5031609;28;19940;-74
2021/07/10 07:42:04;;;;;;;5.07;3.40;;;;;;;29.86;39.82;98977.31;5034105;28;20029;-74
2021/07/10 07:44:29;;;;;;;3.45;2.90;;;;;;;30.43;39.17;98967.16;5028657;28;20368;-76
2021/07/10 07:46:55;;;;;;;5.30;3.45;;;;;;;30.21;39.16;98943.00;5023399;28;20454;-74
2021/07/10 07:49:20;;;;;;;3.75;2.92;;;;;;;32.04;36.16;98969.06;5006995;28;20017;-75
2021/07/10 07:51:45;;;;;;;4.60;3.05;;;;;;;29.80;39.18;98959.13;5017389;28;20032;-74
2021/07/10 07:54:10;;;;;;;6.57;3.35;;;;;;;31.37;37.12;98947.59;5016269;28;20048;-74
2021/07/10 07:56:36;;;;;;;5.35;2.92;;;;;;;31.84;36.32;98958.66;5040918;28;20466;-80
2021/07/10 07:59:04;;;;;;;3.03;2.58;;;;;;;33.90;33.25;98946.53;5018369;28;20021;-79
2021/07/10 08:01:30;;;;;;;4.05;2.53;;;;;;;34.10;32.17;98944.75;5036358;28;20029;-79
2021/07/10 08:03:55;;;;;;;4.22;2.60;;;;;;;33.62;31.37;98924.06;5013977;28;20032;-74
2021/07/10 08:06:20;;;;;;;3.10;2.50;;;;;;;33.57;32.84;98958.78;5032835;28;20429;-74
2021/07/10 08:08:45;;;;;;;2.60;2.35;;;;;;;34.17;31.84;98927.31;5034187;28;20025;-73
2021/07/10 08:11:11;;;;;;;4.03;2.25;;;;;;;33.36;34.14;98944.88;5029905;28;20025;-73
2021/07/10 08:13:37;;;;;;;3.38;2.50;;;;;;;32.78;33.58;98944.13;5021131;28;20494;-73
2021/07/10 08:16:04;;;;;;;2.95;2.40;;;;;;;32.33;33.38;98958.91;5017132;28;20033;-72
2021/07/10 08:18:30;;;;;;;2.95;2.20;;;;;;;32.77;33.01;98950.06;5013408;28;20022;-72
2021/07/10 08:20:55;;;;;;;4.20;2.50;;;;;;;32.14;33.80;98951.00;5022238;28;20097;-74
2021/07/10 08:23:21;;;;;;;2.88;2.30;;;;;;;32.96;32.35;98936.34;5028158;28;20376;-74
2021/07/10 08:25:46;;;;;;;2.80;2.22;;;;;;;32.75;33.47;98930.81;5035320;28;20057;-76
2021/07/10 08:28:12;;;;;;;4.72;2.10;;;;;;;33.32;32.29;98935.53;5056298;28;20077;-75
2021/07/10 08:30:37;;;;;;;3.58;2.67;;;;;;;31.77;34.14;98945.22;5057064;28;20040;-71
2021/07/10 08:33:04;;;;;;;5.15;2.72;;;;;;;33.17;32.53;98917.44;5054586;28;20032;-72
2021/07/10 08:35:29;;;;;;;3.13;2.15;;;;;;;31.59;33.92;98926.91;5019177;28;20112;-70
2021/07/10 08:37:54;;;;;;;3.38;2.30;;;;;;;32.03;33.91;98930.22;5036658;28;20450;-71
2021/07/10 08:40:21;;;;;;;4.13;2.15;;;;;;;32.41;33.19;98927.22;5018502;28;20029;-70
2021/07/10 08:42:46;;;;;;;5.57;2.80;;;;;;;32.16;34.15;98943.09;5035100;28;20100;-72
2021/07/10 08:45:13;;;;;;;4.93;2.40;;;;;;;31.39;34.95;98926.56;5010138;28;20122;-71
2021/07/10 08:47:41;;;;;;;2.90;1.92;;;;;;;32.24;32.77;98932.97;5020685;28;20555;-71
2021/07/10 08:50:13;;;;;;;2.50;1.85;;;;;;;31.50;34.64;98928.97;5011251;28;20376;-70
2021/07/10 08:52:38;;;;;;;4.10;2.35;;;;;;;32.75;33.33;98925.22;5024389;28;20183;-72
2021/07/10 08:55:08;;;;;;;3.03;2.30;;;;;;;32.79;31.91;98930.94;5031994;28;20120;-72
2021/07/10 08:57:36;;;;;;;4.85;2.17;;;;;;;33.04;32.16;98923.38;5003739;28;20022;-72
2021/07/10 09:00:11;;;;;;;2.50;1.92;;;;;;;35.42;29.09;98922.13;5018043;28;20028;-69
2021/07/10 09:02:41;;;;;;;4.07;1.95;;;;;;;34.78;30.25;98910.13;5008329;28;20394;-71
2021/07/10 09:05:07;;;;;;;3.15;2.05;;;;;;;35.18;31.00;98913.94;5041719;28;20036;-73
2021/07/10 09:07:32;;;;;;;3.42;1.73;;;;;;;35.88;28.44;98897.03;5032987;28;20088;-72
2021/07/10 09:09:58;;;;;;;3.47;1.73;;;;;;;34.11;29.46;98906.25;5025669;28;20426;-67
2021/07/10 09:12:31;;;;;;;2.65;1.90;;;;;;;33.03;33.39;98907.75;5031450;28;20025;-76
2021/07/10 09:15:19;;;;;;;3.50;2.10;;;;;;;34.68;29.88;98903.03;5025092;28;20049;-76
2021/07/10 09:17:45;;;;;;;;;;;;;;;34.55;29.58;98917.50;5013784;28;20041;-76
2021/07/10 09:20:22;;;;;;;2.63;1.80;;;;;;;36.88;27.62;98917.09;5031344;28;20351;-76
2021/07/10 09:22:49;;;;;;;2.75;1.83;;;;;;;36.24;28.32;98916.69;5026378;28;20044;-68
2021/07/10 09:25:25;;;;;;;3.50;2.33;;;;;;;35.62;28.97;98905.31;5032047;28;20037;-70
2021/07/10 09:27:51;;;;;;;2.45;1.70;;;;;;;35.37;29.50;98902.75;5023146;28;20400;-70
2021/07/10 09:30:38;;;;;;;2.58;1.90;;;;;;;35.89;28.80;98893.03;5021499;28;20025;-70
2021/07/10 09:33:22;;;;;;;2.35;1.80;;;;;;;35.64;28.07;98902.97;5032315;28;20654;-70
2021/07/10 09:36:01;;;;;;;1.95;1.63;;;;;;;35.69;29.38;98882.97;5029193;28;20021;-70
2021/07/10 09:38:33;;;;;;;3.92;2.08;;;;;;;36.26;27.58;98895.41;5029011;28;20583;-71
2021/07/10 09:41:11;;;;;;;2.20;1.50;;;;;;;35.58;27.39;98879.09;5030553;28;20067;-71
2021/07/10 09:43:38;;;;;;;1.90;1.70;;;;;;;34.77;27.71;98888.81;5032072;28;20044;-70
2021/07/10 09:46:09;;;;;;;4.97;1.42;;;;;;;33.29;29.63;98870.91;5022416;28;20038;-70
2021/07/10 09:48:37;;;;;;;2.30;1.83;;;;;;;34.38;28.63;98882.97;5021317;28;20673;-70
2021/07/10 09:51:35;;;;;;;2.67;1.73;;;;;;;32.42;30.82;98881.22;5029769;28;20068;-71
2021/07/10 09:54:01;;;;;;;3.13;1.90;;;;;;;32.69;31.09;98881.75;4999840;28;20049;-70
2021/07/10 09:56:32;;;;;;;2.17;1.67;;;;;;;33.99;29.22;98881.84;5031900;28;20476;-70
2021/07/10 09:58:58;;;;;;;1.73;1.60;;;;;;;32.50;31.07;98863.53;5029263;28;20029;-71
2021/07/10 10:01:36;;;;;;;2.97;1.75;;;;;;;32.44;30.62;98878.91;5011554;28;20018;-70
2021/07/10 10:04:19;;;;;;;1.52;1.35;;;;;;;33.70;29.36;98875.41;5025585;28;20985;-70
2021/07/10 10:06:45;;;;;;;3.55;1.67;;;;;;;33.97;30.20;98867.34;5018743;28;20033;-71
2021/07/10 10:09:22;;;;;;;2.85;1.33;;;;;;;33.71;28.86;98868.63;5029333;28;20740;-70
2021/07/10 10:11:58;;;;;;;2.45;1.38;;;;;;;34.30;28.07;98869.91;5027062;28;20025;-69
2021/07/10 10:14:27;;;;;;;2.05;1.30;;;;;;;33.45;29.04;98851.38;5028294;28;20021;-71
2021/07/10 10:16:54;;;;;;;1.40;1.30;;;;;;;34.55;27.30;98858.50;5027613;28;20729;-70
2021/07/10 10:19:22;;;;;;;1.30;1.10;;;;;;;35.09;26.06;98864.31;5029131;28;20034;-71
2021/07/10 10:21:51;;;;;;;3.95;1.60;;;;;;;32.96;28.14;98858.66;5023278;28;20031;-69
2021/07/10 10:24:17;;;;;;;1.30;1.20;;;;;;;33.51;28.54;98847.13;5025573;28;20033;-70
2021/07/10 10:26:43;;;;;;;2.05;1.20;;;;;;;33.46;28.29;98855.78;5025404;28;20445;-72
2021/07/10 10:29:10;;;;;;;2.28;1.48;;;;;;;34.14;27.08;98847.41;5010983;28;20025;-71
2021/07/10 10:31:41;;;;;;;2.45;1.52;;;;;;;35.33;26.35;98837.13;5016731;28;20041;-72
2021/07/10 10:34:07;;;;;;;1.67;1.23;;;;;;;34.26;27.14;98850.13;5009859;28;20037;-72
2021/07/10 10:36:35;;;;;;;1.70;1.60;;;;;;;33.56;28.63;98849.72;5010631;28;20127;-72
2021/07/10 10:39:03;;;;;;;1.98;1.30;;;;;;;33.78;28.49;98835.16;5017396;28;20025;-72
2021/07/10 10:41:29;;;;;;;2.35;1.30;;;;;;;33.83;27.90;98840.50;5027361;28;20727;-72
2021/07/10 10:43:55;;;;;;;2.42;1.23;;;;;;;34.31;28.47;98840.63;5007506;28;20160;-71
2021/07/10 10:46:24;;;;;;;1.58;1.23;;;;;;;34.95;26.78;98838.63;5006070;28;20116;-71
2021/07/10 10:48:52;;;;;;;2.15;1.02;;;;;;;36.65;23.97;98838.97;5007963;28;20388;-71
2021/07/10 10:51:32;;;;;;;1.45;1.10;;;;;;;36.03;24.47;98841.81;5008445;28;20033;-70
2021/07/10 10:54:16;;;;;;;1.30;1.20;;;;;;;35.11;26.55;98825.41;5019230;28;20037;-71
2021/07/10 10:56:41;;;;;;;1.58;1.20;;;;;;;33.04;29.40;98825.28;5022228;28;20372;-72
2021/07/10 10:59:43;;;;;;;1.80;1.20;;;;;;;34.55;27.82;98819.16;5019715;28;20056;-71
2021/07/10 11:02:32;;;;;;;2.72;1.40;;;;;;;35.61;27.44;98813.63;5022926;28;20025;-70
2021/07/10 11:04:58;;;;;;;1.30;1.20;;;;;;;35.25;25.88;98815.66;5012537;28;20034;-70
2021/07/10 11:07:26;;;;;;;3.25;1.30;;;;;;;33.93;27.64;98807.47;5017351;28;20056;-76
2021/07/10 11:10:08;;;;;;;3.13;1.27;;;;;;;35.15;26.65;98797.34;5035324;28;20021;-80
2021/07/10 11:12:45;;;;;;;3.35;1.35;;;;;;;35.60;26.63;98803.56;5043784;28;20040;-71
2021/07/10 11:15:27;;;;;;;2.13;1.40;;;;;;;35.04;26.64;98797.09;5019401;28;20029;-74
2021/07/10 11:17:54;;;;;;;2.22;1.58;;;;;;;34.82;27.35;98780.88;5027430;28;20017;-68
2021/07/10 11:20:41;;;;;;;1.67;1.38;;;;;;;34.84;28.64;98786.97;5027910;28;20030;-73
2021/07/10 11:23:08;;;;;;;2.28;1.48;;;;;;;35.29;28.37;98763.91;5015302;28;20057;-73
2021/07/10 11:25:45;;;;;;;1.42;1.30;;;;;;;37.06;24.48;98780.00;5028364;28;20029;-70
2021/07/10 11:28:14;;;;;;;1.52;1.15;;;;;;;35.58;25.67;98753.28;5030289;28;20402;-73